sensor_id;sensor_type;location;lat;lon;timestamp;P1;durP1;ratioP1;P2;durP2;ratioP2
39276;SDS011;63149;48.086;-1.606;2023-07-20T05:01:10;6.20;;;3.38;;
39276;SDS011;63149;48.086;-1.606;2023-07-20T05:03:37;6.93;;;3.75;;
39276;SDS011;63149;48.086;-1.606;2023-07-20T05:06:04;8.75;;;3.70;;
39276;SDS011;63149;48.086;-1.606;2023-07-20T05:08:31;7.18;;;3.28;;
39276;SDS011;63149;48.086;-1.606;2023-07-20T05:10:59;10.27;;;3.95;;
39276;SDS011;63149;48.086;-1.606;2023-07-20T05:13:26;8.85;;;3.60;;
39276;SDS011;63149;48.086;-1.606;2023-07-20T05:15:53;11.02;;;5.10;;
39276;SDS011;63149;48.086;-1.606;2023-07-20T05:18:23;12.30;;;5.28;;
39276;SDS011;63149;48.086;-1.606;2023-07-20T05:20:50;6.53;;;4.10;;
39276;SDS011;63149;48.086;-1.606;2023-07-20T05:23:17;5.65;;;4.05;;
39276;SDS011;63149;48.086;-1.606;2023-07-20T05:25:45;7.70;;;4.32;;
39276;SDS011;63149;48.086;-1.606;2023-07-20T05:28:12;10.38;;;5.43;;
39276;SDS011;63149;48.086;-1.606;2023-07-20T05:30:39;6.60;;;4.25;;
39276;SDS011;63149;48.086;-1.606;2023-07-20T05:33:06;9.57;;;4.80;;
39276;SDS011;63149;48.086;-1.606;2023-07-20T05:35:34;9.48;;;4.95;;
39276;SDS011;63149;48.086;-1.606;2023-07-20T05:38:02;9.38;;;4.57;;
39276;SDS011;63149;48.086;-1.606;2023-07-20T05:40:31;9.82;;;5.15;;
39276;SDS011;63149;48.086;-1.606;2023-07-20T05:42:58;11.05;;;6.32;;
39276;SDS011;63149;48.086;-1.606;2023-07-20T05:45:25;6.78;;;4.70;;
39276;SDS011;63149;48.086;-1.606;2023-07-20T05:47:52;14.05;;;6.07;;
39276;SDS011;63149;48.086;-1.606;2023-07-20T05:50:19;11.85;;;6.05;;
39276;SDS011;63149;48.086;-1.606;2023-07-20T05:52:47;11.13;;;6.97;;
39276;SDS011;63149;48.086;-1.606;2023-07-20T05:55:14;10.63;;;6.32;;
39276;SDS011;63149;48.086;-1.606;2023-07-20T05:57:41;10.27;;;6.30;;
39276;SDS011;63149;48.086;-1.606;2023-07-20T06:00:09;12.48;;;6.13;;
39276;SDS011;63149;48.086;-1.606;2023-07-20T06:02:37;11.23;;;6.32;;
39276;SDS011;63149;48.086;-1.606;2023-07-20T06:05:05;9.85;;;5.40;;
39276;SDS011;63149;48.086;-1.606;2023-07-20T06:07:34;9.68;;;5.20;;
39276;SDS011;63149;48.086;-1.606;2023-07-20T06:10:03;4.63;;;3.97;;
39276;SDS011;63149;48.086;-1.606;2023-07-20T06:12:31;8.85;;;4.80;;
39276;SDS011;63149;48.086;-1.606;2023-07-20T06:15:01;8.13;;;4.00;;
39276;SDS011;63149;48.086;-1.606;2023-07-20T06:17:29;5.95;;;3.47;;
39276;SDS011;63149;48.086;-1.606;2023-07-20T06:19:56;10.60;;;4.60;;
39276;SDS011;63149;48.086;-1.606;2023-07-20T06:22:23;6.53;;;4.40;;
39276;SDS011;63149;48.086;-1.606;2023-07-20T06:24:49;9.15;;;4.15;;
39276;SDS011;63149;48.086;-1.606;2023-07-20T06:27:18;9.50;;;4.32;;
39276;SDS011;63149;48.086;-1.606;2023-07-20T06:29:45;6.65;;;3.95;;
39276;SDS011;63149;48.086;-1.606;2023-07-20T06:32:11;8.23;;;3.50;;
39276;SDS011;63149;48.086;-1.606;2023-07-20T06:34:39;6.00;;;4.18;;
39276;SDS011;63149;48.086;-1.606;2023-07-20T06:37:05;5.53;;;3.88;;
39276;SDS011;63149;48.086;-1.606;2023-07-20T06:39:32;6.03;;;3.65;;
39276;SDS011;63149;48.086;-1.606;2023-07-20T06:41:59;9.40;;;3.53;;
39276;SDS011;63149;48.086;-1.606;2023-07-20T06:44:28;10.73;;;4.47;;
39276;SDS011;63149;48.086;-1.606;2023-07-20T06:46:54;10.10;;;4.13;;
39276;SDS011;63149;48.086;-1.606;2023-07-20T06:49:24;6.78;;;3.35;;
39276;SDS011;63149;48.086;-1.606;2023-07-20T06:51:52;10.77;;;3.90;;
39276;SDS011;63149;48.086;-1.606;2023-07-20T06:54:18;6.68;;;3.63;;
39276;SDS011;63149;48.086;-1.606;2023-07-20T06:56:45;10.68;;;4.35;;
39276;SDS011;63149;48.086;-1.606;2023-07-20T06:59:12;8.35;;;3.70;;
39276;SDS011;63149;48.086;-1.606;2023-07-20T07:01:40;5.47;;;3.58;;
39276;SDS011;63149;48.086;-1.606;2023-07-20T07:04:07;7.90;;;3.72;;
39276;SDS011;63149;48.086;-1.606;2023-07-20T07:06:34;8.60;;;4.18;;
39276;SDS011;63149;48.086;-1.606;2023-07-20T07:09:02;8.50;;;4.13;;
39276;SDS011;63149;48.086;-1.606;2023-07-20T07:11:29;8.70;;;4.47;;
39276;SDS011;63149;48.086;-1.606;2023-07-20T07:13:56;10.25;;;4.05;;
39276;SDS011;63149;48.086;-1.606;2023-07-20T07:16:22;8.27;;;4.20;;
39276;SDS011;63149;48.086;-1.606;2023-07-20T07:18:51;8.30;;;4.57;;
39276;SDS011;63149;48.086;-1.606;2023-07-20T07:21:18;8.60;;;4.00;;
39276;SDS011;63149;48.086;-1.606;2023-07-20T07:23:45;7.20;;;4.13;;
39276;SDS011;63149;48.086;-1.606;2023-07-20T07:26:13;4.55;;;3.38;;
39276;SDS011;63149;48.086;-1.606;2023-07-20T07:28:40;7.85;;;3.10;;
39276;SDS011;63149;48.086;-1.606;2023-07-20T07:31:06;7.47;;;3.25;;
39276;SDS011;63149;48.086;-1.606;2023-07-20T07:33:33;5.97;;;3.10;;
39276;SDS011;63149;48.086;-1.606;2023-07-20T07:36:02;9.10;;;4.07;;
39276;SDS011;63149;48.086;-1.606;2023-07-20T07:38:29;8.55;;;3.72;;
39276;SDS011;63149;48.086;-1.606;2023-07-20T07:40:56;8.40;;;3.58;;
39276;SDS011;63149;48.086;-1.606;2023-07-20T07:43:23;7.20;;;3.10;;
39276;SDS011;63149;48.086;-1.606;2023-07-20T07:45:53;7.35;;;3.30;;
39276;SDS011;63149;48.086;-1.606;2023-07-20T07:48:20;6.80;;;3.08;;
39276;SDS011;63149;48.086;-1.606;2023-07-20T07:50:47;9.75;;;3.78;;
39276;SDS011;63149;48.086;-1.606;2023-07-20T07:53:16;5.53;;;3.35;;
39276;SDS011;63149;48.086;-1.606;2023-07-20T07:55:43;7.28;;;3.42;;
39276;SDS011;63149;48.086;-1.606;2023-07-20T07:58:10;8.00;;;3.65;;
39276;SDS011;63149;48.086;-1.606;2023-07-20T08:00:37;6.93;;;3.63;;
39276;SDS011;63149;48.086;-1.606;2023-07-20T08:03:05;9.95;;;3.55;;
39276;SDS011;63149;48.086;-1.606;2023-07-20T08:05:32;6.45;;;3.22;;
39276;SDS011;63149;48.086;-1.606;2023-07-20T08:08:00;6.55;;;2.75;;
39276;SDS011;63149;48.086;-1.606;2023-07-20T08:10:28;6.18;;;3.03;;
39276;SDS011;63149;48.086;-1.606;2023-07-20T08:12:55;8.38;;;3.85;;
39276;SDS011;63149;48.086;-1.606;2023-07-20T08:15:22;5.13;;;3.13;;
39276;SDS011;63149;48.086;-1.606;2023-07-20T08:17:49;5.82;;;3.38;;
39276;SDS011;63149;48.086;-1.606;2023-07-20T08:20:17;7.13;;;3.22;;
39276;SDS011;63149;48.086;-1.606;2023-07-20T08:22:44;3.50;;;2.50;;
39276;SDS011;63149;48.086;-1.606;2023-07-20T08:25:11;5.72;;;3.13;;
39276;SDS011;63149;48.086;-1.606;2023-07-20T08:27:39;5.20;;;2.85;;
39276;SDS011;63149;48.086;-1.606;2023-07-20T08:30:07;3.97;;;2.83;;
39276;SDS011;63149;48.086;-1.606;2023-07-20T08:32:34;3.70;;;3.30;;
39276;SDS011;63149;48.086;-1.606;2023-07-20T08:35:01;4.93;;;3.03;;
39276;SDS011;63149;48.086;-1.606;2023-07-20T08:37:29;7.57;;;2.95;;
39276;SDS011;63149;48.086;-1.606;2023-07-20T08:39:56;6.32;;;3.03;;
39276;SDS011;63149;48.086;-1.606;2023-07-20T08:42:22;12.75;;;4.15;;
39276;SDS011;63149;48.086;-1.606;2023-07-20T08:44:51;6.97;;;3.08;;
39276;SDS011;63149;48.086;-1.606;2023-07-20T08:47:19;5.90;;;3.15;;
39276;SDS011;63149;48.086;-1.606;2023-07-20T08:49:48;7.07;;;3.13;;
39276;SDS011;63149;48.086;-1.606;2023-07-20T08:52:15;11.57;;;2.83;;
39276;SDS011;63149;48.086;-1.606;2023-07-20T08:54:42;4.55;;;2.78;;
39276;SDS011;63149;48.086;-1.606;2023-07-20T08:57:09;9.95;;;3.35;;
39276;SDS011;63149;48.086;-1.606;2023-07-20T08:59:40;5.25;;;2.65;;
39276;SDS011;63149;48.086;-1.606;2023-07-20T09:02:10;3.65;;;3.00;;
39276;SDS011;63149;48.086;-1.606;2023-07-20T09:04:42;4.13;;;2.80;;
39276;SDS011;63149;48.086;-1.606;2023-07-20T09:07:10;11.90;;;3.00;;
39276;SDS011;63149;48.086;-1.606;2023-07-20T09:09:39;5.60;;;2.55;;
39276;SDS011;63149;48.086;-1.606;2023-07-20T09:12:12;29.60;;;4.53;;
39276;SDS011;63149;48.086;-1.606;2023-07-20T09:14:42;7.75;;;3.25;;
39276;SDS011;63149;48.086;-1.606;2023-07-20T09:17:13;3.78;;;2.58;;
39276;SDS011;63149;48.086;-1.606;2023-07-20T09:19:45;5.40;;;2.60;;
39276;SDS011;63149;48.086;-1.606;2023-07-20T09:22:12;7.68;;;5.80;;
39276;SDS011;63149;48.086;-1.606;2023-07-20T09:24:39;7.43;;;3.40;;
39276;SDS011;63149;48.086;-1.606;2023-07-20T09:27:07;7.88;;;3.28;;
39276;SDS011;63149;48.086;-1.606;2023-07-20T09:29:39;4.95;;;2.60;;
39276;SDS011;63149;48.086;-1.606;2023-07-20T09:32:19;6.80;;;2.90;;
39276;SDS011;63149;48.086;-1.606;2023-07-20T09:34:47;4.90;;;2.30;;
39276;SDS011;63149;48.086;-1.606;2023-07-20T09:37:19;6.85;;;2.72;;
39276;SDS011;63149;48.086;-1.606;2023-07-20T09:39:47;6.65;;;2.90;;
39276;SDS011;63149;48.086;-1.606;2023-07-20T09:42:17;8.23;;;2.60;;
39276;SDS011;63149;48.086;-1.606;2023-07-20T09:44:45;7.15;;;2.35;;
39276;SDS011;63149;48.086;-1.606;2023-07-20T09:47:12;3.35;;;2.00;;
39276;SDS011;63149;48.086;-1.606;2023-07-20T09:49:48;6.20;;;2.33;;
39276;SDS011;63149;48.086;-1.606;2023-07-20T09:52:15;4.97;;;1.80;;
39276;SDS011;63149;48.086;-1.606;2023-07-20T09:54:44;6.80;;;2.28;;
39276;SDS011;63149;48.086;-1.606;2023-07-20T09:57:12;3.63;;;2.10;;
39276;SDS011;63149;48.086;-1.606;2023-07-20T09:59:39;5.95;;;2.00;;
39276;SDS011;63149;48.086;-1.606;2023-07-20T10:02:08;11.88;;;3.28;;
39276;SDS011;63149;48.086;-1.606;2023-07-20T10:04:41;7.00;;;2.60;;
39276;SDS011;63149;48.086;-1.606;2023-07-20T10:07:10;5.15;;;2.17;;
39276;SDS011;63149;48.086;-1.606;2023-07-20T10:09:40;7.72;;;3.00;;
39276;SDS011;63149;48.086;-1.606;2023-07-20T10:12:08;3.78;;;2.40;;
39276;SDS011;63149;48.086;-1.606;2023-07-20T10:14:36;3.00;;;1.77;;
39276;SDS011;63149;48.086;-1.606;2023-07-20T10:17:07;4.18;;;1.90;;
39276;SDS011;63149;48.086;-1.606;2023-07-20T10:19:41;3.97;;;1.63;;
39276;SDS011;63149;48.086;-1.606;2023-07-20T10:24:40;7.03;;;2.20;;
39276;SDS011;63149;48.086;-1.606;2023-07-20T10:27:12;6.20;;;2.13;;
39276;SDS011;63149;48.086;-1.606;2023-07-20T10:29:39;4.40;;;2.25;;
39276;SDS011;63149;48.086;-1.606;2023-07-20T10:32:07;4.47;;;1.85;;
39276;SDS011;63149;48.086;-1.606;2023-07-20T10:34:35;2.33;;;1.48;;
39276;SDS011;63149;48.086;-1.606;2023-07-20T10:37:03;3.72;;;1.98;;
39276;SDS011;63149;48.086;-1.606;2023-07-20T10:39:31;4.65;;;2.05;;
39276;SDS011;63149;48.086;-1.606;2023-07-20T10:42:00;4.68;;;2.10;;
39276;SDS011;63149;48.086;-1.606;2023-07-20T10:44:28;5.18;;;2.13;;
39276;SDS011;63149;48.086;-1.606;2023-07-20T10:46:59;4.22;;;2.10;;
39276;SDS011;63149;48.086;-1.606;2023-07-20T10:49:26;4.70;;;2.00;;
39276;SDS011;63149;48.086;-1.606;2023-07-20T10:51:57;3.70;;;1.90;;
39276;SDS011;63149;48.086;-1.606;2023-07-20T10:57:30;2.40;;;1.65;;
39276;SDS011;63149;48.086;-1.606;2023-07-20T11:00:07;2.58;;;1.65;;
39276;SDS011;63149;48.086;-1.606;2023-07-20T11:02:42;2.25;;;1.83;;
39276;SDS011;63149;48.086;-1.606;2023-07-20T11:10:20;4.50;;;1.90;;
39276;SDS011;63149;48.086;-1.606;2023-07-20T11:15:45;4.93;;;1.80;;
39276;SDS011;63149;48.086;-1.606;2023-07-20T11:18:13;3.25;;;1.70;;
39276;SDS011;63149;48.086;-1.606;2023-07-20T11:20:40;2.97;;;1.63;;
39276;SDS011;63149;48.086;-1.606;2023-07-20T11:23:07;4.88;;;2.00;;
39276;SDS011;63149;48.086;-1.606;2023-07-20T11:25:40;4.20;;;1.70;;
39276;SDS011;63149;48.086;-1.606;2023-07-20T11:28:07;4.40;;;1.80;;
39276;SDS011;63149;48.086;-1.606;2023-07-20T11:30:36;2.83;;;1.60;;
39276;SDS011;63149;48.086;-1.606;2023-07-20T11:33:04;4.25;;;2.00;;
39276;SDS011;63149;48.086;-1.606;2023-07-20T11:35:34;1.77;;;1.50;;
39276;SDS011;63149;48.086;-1.606;2023-07-20T11:38:02;8.95;;;1.90;;
39276;SDS011;63149;48.086;-1.606;2023-07-20T11:40:29;3.58;;;1.50;;
39276;SDS011;63149;48.086;-1.606;2023-07-20T11:42:57;5.50;;;1.95;;
39276;SDS011;63149;48.086;-1.606;2023-07-20T11:45:25;3.05;;;1.67;;
39276;SDS011;63149;48.086;-1.606;2023-07-20T11:47:52;7.03;;;2.00;;
39276;SDS011;63149;48.086;-1.606;2023-07-20T11:50:19;4.18;;;2.10;;
39276;SDS011;63149;48.086;-1.606;2023-07-20T11:52:46;3.92;;;1.98;;
39276;SDS011;63149;48.086;-1.606;2023-07-20T11:55:13;64.35;;;4.50;;
39276;SDS011;63149;48.086;-1.606;2023-07-20T11:57:40;4.28;;;2.10;;
39276;SDS011;63149;48.086;-1.606;2023-07-20T12:00:09;5.07;;;1.80;;
39276;SDS011;63149;48.086;-1.606;2023-07-20T12:02:37;4.15;;;1.90;;
39276;SDS011;63149;48.086;-1.606;2023-07-20T12:05:05;5.35;;;1.90;;
39276;SDS011;63149;48.086;-1.606;2023-07-20T12:07:35;1.85;;;1.70;;
39276;SDS011;63149;48.086;-1.606;2023-07-20T12:10:05;5.20;;;2.15;;
39276;SDS011;63149;48.086;-1.606;2023-07-20T12:12:33;4.25;;;1.60;;
39276;SDS011;63149;48.086;-1.606;2023-07-20T12:15:15;3.47;;;1.67;;
39276;SDS011;63149;48.086;-1.606;2023-07-20T12:17:43;3.70;;;1.77;;
39276;SDS011;63149;48.086;-1.606;2023-07-20T12:20:10;5.38;;;1.80;;
39276;SDS011;63149;48.086;-1.606;2023-07-20T12:22:38;4.57;;;1.70;;
39276;SDS011;63149;48.086;-1.606;2023-07-20T12:25:06;4.25;;;1.98;;
39276;SDS011;63149;48.086;-1.606;2023-07-20T12:27:35;3.50;;;1.90;;
39276;SDS011;63149;48.086;-1.606;2023-07-20T12:30:03;3.92;;;1.92;;
39276;SDS011;63149;48.086;-1.606;2023-07-20T12:32:33;4.47;;;2.20;;
39276;SDS011;63149;48.086;-1.606;2023-07-20T12:34:59;2.78;;;1.60;;
39276;SDS011;63149;48.086;-1.606;2023-07-20T12:37:27;2.38;;;1.63;;
39276;SDS011;63149;48.086;-1.606;2023-07-20T12:39:54;2.95;;;1.90;;
39276;SDS011;63149;48.086;-1.606;2023-07-20T12:42:21;2.83;;;1.50;;
39276;SDS011;63149;48.086;-1.606;2023-07-20T12:44:48;4.22;;;1.63;;
39276;SDS011;63149;48.086;-1.606;2023-07-20T12:47:16;4.60;;;1.85;;
39276;SDS011;63149;48.086;-1.606;2023-07-20T12:49:45;4.43;;;1.73;;
39276;SDS011;63149;48.086;-1.606;2023-07-20T12:52:12;2.72;;;1.63;;
39276;SDS011;63149;48.086;-1.606;2023-07-20T12:54:39;4.78;;;2.20;;
39276;SDS011;63149;48.086;-1.606;2023-07-20T12:57:06;4.10;;;1.70;;
39276;SDS011;63149;48.086;-1.606;2023-07-20T12:59:33;4.30;;;1.70;;
39276;SDS011;63149;48.086;-1.606;2023-07-20T13:02:00;2.05;;;1.70;;
39276;SDS011;63149;48.086;-1.606;2023-07-20T13:04:27;3.53;;;1.50;;
39276;SDS011;63149;48.086;-1.606;2023-07-20T13:06:56;2.47;;;1.60;;
39276;SDS011;63149;48.086;-1.606;2023-07-20T13:09:23;3.75;;;1.60;;
39276;SDS011;63149;48.086;-1.606;2023-07-20T13:11:50;2.25;;;1.60;;
39276;SDS011;63149;48.086;-1.606;2023-07-20T13:14:17;2.22;;;2.00;;
39276;SDS011;63149;48.086;-1.606;2023-07-20T13:16:44;3.58;;;1.60;;
39276;SDS011;63149;48.086;-1.606;2023-07-20T13:19:11;5.35;;;1.83;;
39276;SDS011;63149;48.086;-1.606;2023-07-20T13:21:38;3.38;;;1.70;;
39276;SDS011;63149;48.086;-1.606;2023-07-20T13:24:06;4.18;;;1.60;;
39276;SDS011;63149;48.086;-1.606;2023-07-20T13:26:34;3.72;;;1.80;;
39276;SDS011;63149;48.086;-1.606;2023-07-20T13:29:01;3.53;;;1.63;;
39276;SDS011;63149;48.086;-1.606;2023-07-20T13:31:28;7.15;;;1.50;;
39276;SDS011;63149;48.086;-1.606;2023-07-20T13:33:55;4.35;;;1.80;;
39276;SDS011;63149;48.086;-1.606;2023-07-20T13:36:22;2.55;;;1.40;;
39276;SDS011;63149;48.086;-1.606;2023-07-20T13:38:49;4.25;;;1.48;;
39276;SDS011;63149;48.086;-1.606;2023-07-20T13:41:18;3.55;;;1.40;;
39276;SDS011;63149;48.086;-1.606;2023-07-20T13:43:45;4.25;;;2.00;;
39276;SDS011;63149;48.086;-1.606;2023-07-20T13:46:12;2.80;;;1.30;;
39276;SDS011;63149;48.086;-1.606;2023-07-20T13:48:39;5.50;;;1.40;;
39276;SDS011;63149;48.086;-1.606;2023-07-20T13:51:06;2.28;;;1.40;;
39276;SDS011;63149;48.086;-1.606;2023-07-20T13:53:33;2.00;;;1.20;;
39276;SDS011;63149;48.086;-1.606;2023-07-20T13:56:00;4.30;;;1.30;;
39276;SDS011;63149;48.086;-1.606;2023-07-20T13:58:30;2.10;;;1.55;;
39276;SDS011;63149;48.086;-1.606;2023-07-20T14:00:58;3.03;;;1.48;;
39276;SDS011;63149;48.086;-1.606;2023-07-20T14:03:25;2.17;;;1.50;;
39276;SDS011;63149;48.086;-1.606;2023-07-20T14:05:52;1.95;;;1.70;;
39276;SDS011;63149;48.086;-1.606;2023-07-20T14:08:19;2.20;;;1.30;;
39276;SDS011;63149;48.086;-1.606;2023-07-20T14:10:47;3.30;;;1.50;;
39276;SDS011;63149;48.086;-1.606;2023-07-20T14:13:14;2.42;;;1.25;;
39276;SDS011;63149;48.086;-1.606;2023-07-20T14:15:42;2.38;;;1.50;;
39276;SDS011;63149;48.086;-1.606;2023-07-20T14:18:09;3.45;;;1.65;;
39276;SDS011;63149;48.086;-1.606;2023-07-20T14:20:36;3.55;;;1.25;;
39276;SDS011;63149;48.086;-1.606;2023-07-20T14:23:03;4.28;;;2.20;;
39276;SDS011;63149;48.086;-1.606;2023-07-20T14:25:29;2.45;;;1.42;;
39276;SDS011;63149;48.086;-1.606;2023-07-20T14:27:57;1.50;;;1.40;;
39276;SDS011;63149;48.086;-1.606;2023-07-20T14:30:24;3.35;;;1.58;;
39276;SDS011;63149;48.086;-1.606;2023-07-20T14:32:53;5.10;;;1.83;;
39276;SDS011;63149;48.086;-1.606;2023-07-20T14:35:20;3.55;;;1.70;;
39276;SDS011;63149;48.086;-1.606;2023-07-20T14:37:47;2.35;;;1.33;;
39276;SDS011;63149;48.086;-1.606;2023-07-20T14:40:15;2.55;;;1.90;;
39276;SDS011;63149;48.086;-1.606;2023-07-20T14:42:42;3.80;;;1.88;;
39276;SDS011;63149;48.086;-1.606;2023-07-20T14:45:09;1.42;;;1.33;;
39276;SDS011;63149;48.086;-1.606;2023-07-20T14:47:36;5.15;;;1.58;;
39276;SDS011;63149;48.086;-1.606;2023-07-20T14:50:05;2.40;;;1.58;;
39276;SDS011;63149;48.086;-1.606;2023-07-20T14:52:32;1.60;;;1.50;;
39276;SDS011;63149;48.086;-1.606;2023-07-20T14:54:59;2.72;;;1.83;;
39276;SDS011;63149;48.086;-1.606;2023-07-20T14:57:26;5.03;;;1.42;;
39276;SDS011;63149;48.086;-1.606;2023-07-20T14:59:53;1.83;;;1.38;;
39276;SDS011;63149;48.086;-1.606;2023-07-20T15:02:20;3.10;;;1.85;;
39276;SDS011;63149;48.086;-1.606;2023-07-20T15:04:48;3.72;;;1.45;;
39276;SDS011;63149;48.086;-1.606;2023-07-20T15:07:17;2.70;;;1.50;;
39276;SDS011;63149;48.086;-1.606;2023-07-20T15:09:45;2.15;;;1.40;;
39276;SDS011;63149;48.086;-1.606;2023-07-20T15:12:11;1.85;;;1.67;;
39276;SDS011;63149;48.086;-1.606;2023-07-20T15:14:39;5.22;;;1.63;;
39276;SDS011;63149;48.086;-1.606;2023-07-20T15:17:08;2.13;;;1.55;;
39276;SDS011;63149;48.086;-1.606;2023-07-20T15:19:35;2.28;;;1.60;;
39276;SDS011;63149;48.086;-1.606;2023-07-20T15:22:02;3.75;;;1.70;;
39276;SDS011;63149;48.086;-1.606;2023-07-20T15:24:30;4.13;;;1.83;;
39276;SDS011;63149;48.086;-1.606;2023-07-20T15:26:58;4.13;;;1.80;;
39276;SDS011;63149;48.086;-1.606;2023-07-20T15:29:26;4.57;;;1.48;;
39276;SDS011;63149;48.086;-1.606;2023-07-20T15:31:53;1.55;;;1.40;;
39276;SDS011;63149;48.086;-1.606;2023-07-20T15:34:19;3.25;;;1.90;;
39276;SDS011;63149;48.086;-1.606;2023-07-20T15:36:46;2.58;;;1.52;;
39276;SDS011;63149;48.086;-1.606;2023-07-20T15:39:13;3.55;;;1.67;;
39276;SDS011;63149;48.086;-1.606;2023-07-20T15:41:41;3.08;;;1.60;;
39276;SDS011;63149;48.086;-1.606;2023-07-20T15:44:08;1.73;;;1.60;;
39276;SDS011;63149;48.086;-1.606;2023-07-20T15:46:43;3.10;;;1.55;;
39276;SDS011;63149;48.086;-1.606;2023-07-20T15:49:11;5.70;;;1.88;;
39276;SDS011;63149;48.086;-1.606;2023-07-20T15:51:38;3.85;;;1.50;;
39276;SDS011;63149;48.086;-1.606;2023-07-20T15:54:07;3.85;;;1.88;;
39276;SDS011;63149;48.086;-1.606;2023-07-20T15:56:35;5.25;;;1.70;;
39276;SDS011;63149;48.086;-1.606;2023-07-20T15:59:04;4.72;;;1.70;;
39276;SDS011;63149;48.086;-1.606;2023-07-20T16:01:31;2.38;;;1.92;;
39276;SDS011;63149;48.086;-1.606;2023-07-20T16:03:59;1.92;;;1.70;;
39276;SDS011;63149;48.086;-1.606;2023-07-20T16:06:26;1.70;;;1.60;;
39276;SDS011;63149;48.086;-1.606;2023-07-20T16:08:53;3.50;;;1.80;;
39276;SDS011;63149;48.086;-1.606;2023-07-20T16:11:21;1.58;;;1.48;;
39276;SDS011;63149;48.086;-1.606;2023-07-20T16:13:48;1.73;;;1.50;;
39276;SDS011;63149;48.086;-1.606;2023-07-20T16:16:17;1.65;;;1.30;;
39276;SDS011;63149;48.086;-1.606;2023-07-20T16:18:44;2.53;;;1.80;;
39276;SDS011;63149;48.086;-1.606;2023-07-20T16:21:11;2.58;;;1.40;;
39276;SDS011;63149;48.086;-1.606;2023-07-20T16:23:37;2.78;;;1.55;;
39276;SDS011;63149;48.086;-1.606;2023-07-20T16:26:04;3.30;;;1.60;;
39276;SDS011;63149;48.086;-1.606;2023-07-20T16:28:31;2.88;;;1.60;;
39276;SDS011;63149;48.086;-1.606;2023-07-20T16:30:58;1.60;;;1.50;;
39276;SDS011;63149;48.086;-1.606;2023-07-20T16:33:26;3.33;;;1.60;;
39276;SDS011;63149;48.086;-1.606;2023-07-20T16:35:53;2.55;;;1.63;;
39276;SDS011;63149;48.086;-1.606;2023-07-20T16:38:21;2.85;;;1.40;;
39276;SDS011;63149;48.086;-1.606;2023-07-20T16:40:48;2.25;;;1.35;;
39276;SDS011;63149;48.086;-1.606;2023-07-20T16:43:15;3.45;;;1.55;;
39276;SDS011;63149;48.086;-1.606;2023-07-20T16:45:42;2.42;;;1.55;;
39276;SDS011;63149;48.086;-1.606;2023-07-20T16:48:09;2.70;;;1.70;;
39276;SDS011;63149;48.086;-1.606;2023-07-20T16:50:37;2.00;;;1.30;;
39276;SDS011;63149;48.086;-1.606;2023-07-20T16:53:05;4.85;;;1.58;;
39276;SDS011;63149;48.086;-1.606;2023-07-20T16:55:31;1.92;;;1.63;;
39276;SDS011;63149;48.086;-1.606;2023-07-20T16:57:58;4.80;;;1.60;;
39276;SDS011;63149;48.086;-1.606;2023-07-20T17:00:25;1.55;;;1.40;;
39276;SDS011;63149;48.086;-1.606;2023-07-20T17:02:52;3.65;;;1.65;;
39276;SDS011;63149;48.086;-1.606;2023-07-20T17:05:19;2.17;;;1.80;;
39276;SDS011;63149;48.086;-1.606;2023-07-20T17:07:47;2.10;;;1.60;;
39276;SDS011;63149;48.086;-1.606;2023-07-20T17:10:21;1.55;;;1.45;;
39276;SDS011;63149;48.086;-1.606;2023-07-20T17:12:49;5.82;;;1.67;;
39276;SDS011;63149;48.086;-1.606;2023-07-20T17:15:16;5.95;;;1.65;;
39276;SDS011;63149;48.086;-1.606;2023-07-20T17:17:43;1.75;;;1.38;;
39276;SDS011;63149;48.086;-1.606;2023-07-20T17:20:10;6.32;;;1.70;;
39276;SDS011;63149;48.086;-1.606;2023-07-20T17:22:38;2.22;;;1.65;;
39276;SDS011;63149;48.086;-1.606;2023-07-20T17:25:07;2.30;;;1.55;;
39276;SDS011;63149;48.086;-1.606;2023-07-20T17:27:34;3.22;;;1.70;;
39276;SDS011;63149;48.086;-1.606;2023-07-20T17:30:01;2.83;;;1.83;;
39276;SDS011;63149;48.086;-1.606;2023-07-20T17:32:29;4.40;;;1.70;;
39276;SDS011;63149;48.086;-1.606;2023-07-20T17:34:56;2.10;;;1.60;;
39276;SDS011;63149;48.086;-1.606;2023-07-20T17:37:23;1.88;;;1.70;;
39276;SDS011;63149;48.086;-1.606;2023-07-20T17:39:50;4.05;;;2.03;;
39276;SDS011;63149;48.086;-1.606;2023-07-20T17:42:19;3.72;;;1.85;;
39276;SDS011;63149;48.086;-1.606;2023-07-20T17:44:46;3.00;;;1.90;;
39276;SDS011;63149;48.086;-1.606;2023-07-20T17:47:13;4.47;;;1.63;;
39276;SDS011;63149;48.086;-1.606;2023-07-20T17:49:40;5.63;;;2.08;;
39276;SDS011;63149;48.086;-1.606;2023-07-20T17:52:07;2.53;;;1.75;;
39276;SDS011;63149;48.086;-1.606;2023-07-20T17:54:34;2.05;;;1.85;;
39276;SDS011;63149;48.086;-1.606;2023-07-20T17:57:01;3.38;;;1.67;;
39276;SDS011;63149;48.086;-1.606;2023-07-20T17:59:29;6.82;;;2.28;;
39276;SDS011;63149;48.086;-1.606;2023-07-20T18:01:56;3.60;;;1.63;;
39276;SDS011;63149;48.086;-1.606;2023-07-20T18:04:24;1.35;;;1.10;;
39276;SDS011;63149;48.086;-1.606;2023-07-20T18:06:51;1.95;;;1.25;;
39276;SDS011;63149;48.086;-1.606;2023-07-20T18:09:18;2.50;;;1.40;;
39276;SDS011;63149;48.086;-1.606;2023-07-20T18:11:45;2.53;;;1.33;;
39276;SDS011;63149;48.086;-1.606;2023-07-20T18:14:12;2.38;;;1.40;;
39276;SDS011;63149;48.086;-1.606;2023-07-20T18:16:41;4.20;;;1.75;;
39276;SDS011;63149;48.086;-1.606;2023-07-20T18:19:08;5.47;;;1.83;;
39276;SDS011;63149;48.086;-1.606;2023-07-20T18:21:35;2.15;;;1.48;;
39276;SDS011;63149;48.086;-1.606;2023-07-20T18:24:02;2.17;;;1.48;;
39276;SDS011;63149;48.086;-1.606;2023-07-20T18:26:29;1.85;;;1.38;;
39276;SDS011;63149;48.086;-1.606;2023-07-20T18:28:56;5.97;;;1.60;;
39276;SDS011;63149;48.086;-1.606;2023-07-20T18:31:23;2.17;;;1.50;;
39276;SDS011;63149;48.086;-1.606;2023-07-20T18:33:51;5.13;;;1.60;;
39276;SDS011;63149;48.086;-1.606;2023-07-20T18:36:19;3.05;;;1.50;;
39276;SDS011;63149;48.086;-1.606;2023-07-20T18:38:46;1.65;;;1.35;;
39276;SDS011;63149;48.086;-1.606;2023-07-20T18:41:13;3.75;;;1.58;;
39276;SDS011;63149;48.086;-1.606;2023-07-20T18:43:41;3.38;;;1.70;;
39276;SDS011;63149;48.086;-1.606;2023-07-20T18:46:08;2.25;;;1.50;;
39276;SDS011;63149;48.086;-1.606;2023-07-20T18:48:35;4.00;;;1.50;;
39276;SDS011;63149;48.086;-1.606;2023-07-20T18:51:03;5.68;;;1.77;;
39276;SDS011;63149;48.086;-1.606;2023-07-20T18:53:32;2.13;;;1.80;;
39276;SDS011;63149;48.086;-1.606;2023-07-20T18:55:59;1.95;;;1.67;;
39276;SDS011;63149;48.086;-1.606;2023-07-20T18:58:26;4.95;;;1.85;;
39276;SDS011;63149;48.086;-1.606;2023-07-20T19:00:57;3.60;;;1.58;;
39276;SDS011;63149;48.086;-1.606;2023-07-20T19:05:51;3.30;;;1.83;;
39276;SDS011;63149;48.086;-1.606;2023-07-20T19:08:19;2.88;;;1.50;;
39276;SDS011;63149;48.086;-1.606;2023-07-20T19:10:46;1.85;;;1.50;;
39276;SDS011;63149;48.086;-1.606;2023-07-20T19:13:14;1.75;;;1.33;;
39276;SDS011;63149;48.086;-1.606;2023-07-20T19:15:46;3.13;;;1.50;;
39276;SDS011;63149;48.086;-1.606;2023-07-20T19:18:14;3.53;;;1.70;;
39276;SDS011;63149;48.086;-1.606;2023-07-20T19:20:41;2.97;;;1.60;;
39276;SDS011;63149;48.086;-1.606;2023-07-20T19:23:08;4.53;;;1.73;;
39276;SDS011;63149;48.086;-1.606;2023-07-20T19:25:36;1.85;;;1.52;;
39276;SDS011;63149;48.086;-1.606;2023-07-20T19:28:04;3.08;;;1.52;;
39276;SDS011;63149;48.086;-1.606;2023-07-20T19:30:31;4.93;;;1.80;;
39276;SDS011;63149;48.086;-1.606;2023-07-20T19:32:58;2.03;;;1.50;;
39276;SDS011;63149;48.086;-1.606;2023-07-20T19:35:25;2.92;;;1.65;;
39276;SDS011;63149;48.086;-1.606;2023-07-20T19:37:52;2.65;;;1.65;;
39276;SDS011;63149;48.086;-1.606;2023-07-20T19:40:18;3.15;;;1.92;;
39276;SDS011;63149;48.086;-1.606;2023-07-20T19:42:47;3.30;;;1.70;;
39276;SDS011;63149;48.086;-1.606;2023-07-20T19:45:14;4.50;;;1.80;;
39276;SDS011;63149;48.086;-1.606;2023-07-20T19:47:41;3.55;;;1.75;;
39276;SDS011;63149;48.086;-1.606;2023-07-20T19:50:08;4.53;;;2.00;;
39276;SDS011;63149;48.086;-1.606;2023-07-20T19:52:35;4.22;;;1.60;;